Time;durP1;ratioP1;P1;durP2;ratioP2;P2;SDS_P1;SDS_P2;PMS_P1;PMS_P2;Temp;Humidity;BMP_temperature;BMP_pressure;BME280_temperature;BME280_humidity;BME280_pressure;Samples;Min_cycle;Max_cycle;Signal;HPM_P1;HPM_P2
2023/06/13 00:01:53;;;;;;;5.93;4.97;;;;;;;16.69;48.60;98113.22;5048155;28;20079;-73
2023/06/13 00:04:23;;;;;;;6.03;4.88;;;;;;;16.72;48.99;98112.66;5040996;28;20041;-72
2023/06/13 00:06:56;;;;;;;5.97;4.95;;;;;;;16.58;49.59;98124.19;5052221;28;20032;-72
2023/06/13 00:09:23;;;;;;;6.13;4.80;;;;;;;16.23;50.55;98121.72;5019426;28;20505;-72
2023/06/13 00:11:51;;;;;;;6.97;4.75;;;;;;;15.96;51.79;98121.34;5052094;28;20445;-73
2023/06/13 00:14:21;;;;;;;5.95;4.65;;;;;;;16.25;50.88;98108.66;5035210;28;20517;-73
2023/06/13 00:16:47;;;;;;;7.63;4.68;;;;;;;16.29;50.73;98109.69;5051135;28;20398;-73
2023/06/13 00:19:13;;;;;;;7.45;5.10;;;;;;;16.21;51.17;98115.75;5051963;28;20021;-74
2023/06/13 00:21:38;;;;;;;7.07;5.05;;;;;;;15.81;51.99;98113.28;5050184;28;20041;-73
2023/06/13 00:24:04;;;;;;;7.85;4.65;;;;;;;16.12;50.76;98114.72;5052680;28;20060;-72
2023/06/13 00:26:30;;;;;;;6.18;4.60;;;;;;;16.04;51.53;98114.50;5051929;28;20037;-72
2023/06/13 00:28:55;;;;;;;6.18;4.47;;;;;;;15.76;52.15;98105.16;5035090;28;20398;-72
2023/06/13 00:31:21;;;;;;;6.30;5.05;;;;;;;15.73;51.90;98113.84;5034908;28;20076;-72
2023/06/13 00:33:50;;;;;;;6.03;4.45;;;;;;;15.75;51.52;98098.91;5034575;28;20025;-73
2023/06/13 00:36:20;;;;;;;7.65;5.13;;;;;;;15.98;51.34;98113.72;5051662;28;20768;-71
2023/06/13 00:38:48;;;;;;;6.85;4.50;;;;;;;15.79;51.82;98116.28;5035255;28;20037;-72
2023/06/13 00:41:14;;;;;;;9.80;4.85;;;;;;;15.45;52.61;98107.19;5051494;28;20025;-72
2023/06/13 00:43:39;;;;;;;7.18;4.50;;;;;;;15.63;51.92;98108.50;5025444;28;20416;-72
2023/06/13 00:46:04;;;;;;;6.10;4.65;;;;;;;15.69;52.04;98099.22;5033826;28;20474;-71
2023/06/13 00:48:31;;;;;;;6.07;4.97;;;;;;;15.07;53.90;98103.25;5042508;28;20040;-72
2023/06/13 00:50:57;;;;;;;5.28;4.47;;;;;;;15.39;52.73;98102.84;5047765;28;20028;-72
2023/06/13 00:53:23;;;;;;;5.65;4.50;;;;;;;15.35;53.29;98109.13;5034142;28;20494;-74
2023/06/13 00:55:50;;;;;;;7.38;4.57;;;;;;;14.67;54.81;98097.88;5051198;28;20025;-73
2023/06/13 00:58:16;;;;;;;5.20;4.60;;;;;;;15.15;53.90;98099.94;5075677;22;20506;-76
2023/06/13 01:00:44;;;;;;;5.95;4.80;;;;;;;15.06;53.73;98095.38;5022342;28;20033;-77
2023/06/13 01:03:14;;;;;;;8.43;5.00;;;;;;;15.10;53.89;98097.25;5026419;28;20052;-77
2023/06/13 01:05:40;;;;;;;8.25;4.57;;;;;;;15.36;53.11;98097.16;5021840;28;20548;-77
2023/06/13 01:08:16;;;;;;;6.03;4.80;;;;;;;15.47;53.11;98096.91;5008596;28;20025;-76
2023/06/13 01:10:42;;;;;;;5.68;4.82;;;;;;;14.57;55.17;98081.63;5018233;28;20196;-76
2023/06/13 01:13:24;;;;;;;7.72;4.35;;;;;;;14.98;54.50;98094.03;5005414;28;20079;-75
2023/06/13 01:16:14;;;;;;;6.88;4.63;;;;;;;15.35;53.56;98098.25;5024754;28;20037;-75
2023/06/13 01:18:42;;;;;;;6.88;4.45;;;;;;;15.33;53.30;98089.59;5005034;28;20087;-75
2023/06/13 01:21:08;;;;;;;10.35;4.97;;;;;;;15.28;53.47;98095.84;4998552;28;20025;-75
2023/06/13 01:23:43;;;;;;;8.95;4.68;;;;;;;15.06;53.99;98088.03;5010397;28;20037;-75
2023/06/13 01:26:28;;;;;;;5.55;4.40;;;;;;;15.30;53.36;98080.09;5011651;28;20051;-75
2023/06/13 01:28:55;;;;;;;5.35;4.65;;;;;;;15.28;53.44;98076.84;5025175;28;20029;-75
2023/06/13 01:31:22;;;;;;;7.15;4.85;;;;;;;15.22;53.83;98083.38;5021640;28;20021;-75
2023/06/13 01:33:48;;;;;;;7.43;5.10;;;;;;;14.84;54.93;98075.91;5006805;28;20040;-77
2023/06/13 01:36:14;;;;;;;5.07;4.10;;;;;;;14.89;54.29;98073.97;4995550;28;20029;-76
2023/06/13 01:38:40;;;;;;;7.85;4.32;;;;;;;15.13;54.44;98080.44;4993239;28;20453;-75
2023/06/13 01:41:05;;;;;;;5.90;4.25;;;;;;;15.19;53.32;98057.59;5004735;28;20024;-75
2023/06/13 01:43:31;;;;;;;8.25;4.53;;;;;;;15.07;53.91;98070.69;5017098;28;20033;-75
2023/06/13 01:46:02;;;;;;;5.35;4.50;;;;;;;14.57;55.57;98065.38;5020949;28;20040;-75
2023/06/13 01:48:31;;;;;;;6.35;4.72;;;;;;;15.00;54.76;98070.19;5022620;28;20043;-72
2023/06/13 01:51:00;;;;;;;8.32;4.65;;;;;;;14.97;54.63;98070.72;5030902;28;20032;-73
2023/06/13 01:53:29;;;;;;;7.63;4.15;;;;;;;14.94;54.91;98078.56;5051712;28;20017;-73
2023/06/13 01:56:00;;;;;;;5.85;4.57;;;;;;;14.84;55.24;98071.28;5011132;28;20044;-73
2023/06/13 01:58:34;;;;;;;5.75;4.68;;;;;;;14.72;55.65;98075.38;5010884;28;20107;-73
2023/06/13 02:01:04;;;;;;;6.03;4.50;;;;;;;14.73;55.45;98077.81;5022673;28;20075;-74
2023/06/13 02:03:30;;;;;;;5.70;4.70;;;;;;;14.59;56.00;98074.03;5004426;28;20088;-75
2023/06/13 02:05:56;;;;;;;9.45;4.75;;;;;;;14.85;55.07;98074.81;5014370;28;20029;-75
2023/06/13 02:08:21;;;;;;;7.60;4.80;;;;;;;14.77;55.00;98070.75;5017210;28;20044;-75
2023/06/13 02:10:47;;;;;;;5.85;4.88;;;;;;;14.56;55.47;98069.19;4997568;28;20060;-74
2023/06/13 02:13:12;;;;;;;6.28;4.95;;;;;;;14.59;55.44;98057.78;5046250;28;20036;-75
2023/06/13 02:15:37;;;;;;;6.97;5.30;;;;;;;14.70;54.91;98064.81;5033546;28;20037;-75
2023/06/13 02:18:03;;;;;;;7.43;5.03;;;;;;;14.76;55.05;98074.56;5003924;28;20077;-75
2023/06/13 02:20:28;;;;;;;7.35;5.18;;;;;;;14.44;56.06;98060.50;5009503;28;20041;-74
2023/06/13 02:22:54;;;;;;;7.43;4.75;;;;;;;14.44;55.81;98061.34;4994756;28;20037;-73
2023/06/13 02:25:20;;;;;;;7.57;5.00;;;;;;;14.40;56.05;98070.25;4988899;28;20489;-73
2023/06/13 02:27:45;;;;;;;12.65;4.90;;;;;;;14.37;56.35;98062.69;5020659;28;20406;-72
2023/06/13 02:30:10;;;;;;;6.88;4.50;;;;;;;14.20;57.26;98060.22;5027031;28;20029;-73
2023/06/13 02:32:42;;;;;;;5.13;4.63;;;;;;;14.31;56.61;98056.44;5011654;28;20083;-72
2023/06/13 02:35:08;;;;;;;6.68;5.28;;;;;;;14.21;57.87;98061.03;5033565;28;20441;-76
2023/06/13 02:37:34;;;;;;;6.15;4.70;;;;;;;14.05;58.66;98064.81;5016134;28;20021;-75
2023/06/13 02:39:59;;;;;;;7.45;4.88;;;;;;;13.85;59.18;98058.28;5021629;28;20375;-74
2023/06/13 02:42:26;;;;;;;7.65;5.00;;;;;;;13.44;60.43;98053.06;5023732;28;20032;-74
2023/06/13 02:44:52;;;;;;;6.28;5.03;;;;;;;13.47;60.09;98056.03;5012869;28;20479;-75
2023/06/13 02:47:19;;;;;;;5.00;4.57;;;;;;;13.44;60.47;98063.88;4997620;28;20078;-75
2023/06/13 02:49:45;;;;;;;6.15;4.85;;;;;;;13.46;59.80;98054.44;5009831;28;20033;-74
2023/06/13 02:52:11;;;;;;;6.85;5.20;;;;;;;13.54;60.11;98062.00;5005878;28;20125;-75
2023/06/13 02:54:36;;;;;;;6.90;4.55;;;;;;;13.70;59.14;98052.84;4995869;28;20037;-74
2023/06/13 02:57:03;;;;;;;7.95;5.03;;;;;;;13.66;59.33;98053.66;5015730;28;20025;-75
2023/06/13 02:59:34;;;;;;;6.65;5.03;;;;;;;13.63;59.21;98044.16;5012933;28;20462;-75
2023/06/13 03:01:59;;;;;;;8.32;4.90;;;;;;;13.63;58.91;98041.47;5023723;28;20124;-75
2023/06/13 03:04:28;;;;;;;7.75;5.57;;;;;;;13.40;59.98;98054.66;5010422;28;20109;-76
2023/06/13 03:06:54;;;;;;;6.72;5.32;;;;;;;13.44;59.63;98043.03;4998118;28;20472;-76
2023/06/13 03:09:19;;;;;;;5.78;5.10;;;;;;;13.58;59.38;98057.69;4994237;28;20029;-76
2023/06/13 03:11:45;;;;;;;7.05;5.15;;;;;;;13.42;59.50;98047.91;5006983;28;20436;-76
2023/06/13 03:14:11;;;;;;;4.95;4.45;;;;;;;13.45;59.46;98041.13;5036299;28;20017;-75
2023/06/13 03:16:36;;;;;;;5.25;4.70;;;;;;;13.54;59.05;98053.88;5006956;28;20033;-75
2023/06/13 03:19:03;;;;;;;5.78;4.97;;;;;;;13.09;60.80;98041.00;5010301;28;20025;-75
2023/06/13 03:21:30;;;;;;;6.43;5.10;;;;;;;13.41;59.66;98057.09;5014449;28;20053;-75
2023/06/13 03:23:55;;;;;;;5.78;4.93;;;;;;;13.32;59.80;98052.47;5009826;28;20024;-75
2023/06/13 03:26:21;;;;;;;7.15;5.07;;;;;;;13.09;61.10;98048.34;5011867;28;20037;-74
2023/06/13 03:28:47;;;;;;;6.85;5.47;;;;;;;13.00;61.36;98044.44;5019955;28;20021;-75
2023/06/13 03:31:12;;;;;;;5.60;5.10;;;;;;;12.65;62.52;98055.09;5006531;28;20139;-76
2023/06/13 03:33:38;;;;;;;6.22;5.40;;;;;;;12.86;61.57;98048.75;5009328;28;20022;-75
2023/06/13 03:36:05;;;;;;;6.07;5.25;;;;;;;12.78;62.23;98051.91;5029768;28;20041;-75
2023/06/13 03:38:30;;;;;;;9.57;5.50;;;;;;;12.38;63.25;98050.59;5013507;28;20017;-76
2023/06/13 03:40:56;;;;;;;7.47;5.28;;;;;;;12.60;62.98;98049.66;5033322;28;20045;-76
2023/06/13 03:43:21;;;;;;;8.18;5.43;;;;;;;12.67;63.04;98050.25;5019196;28;20029;-75
2023/06/13 03:45:48;;;;;;;5.70;4.95;;;;;;;12.99;61.67;98056.34;5028153;28;20037;-74
2023/06/13 03:48:14;;;;;;;7.70;5.05;;;;;;;13.12;60.80;98048.59;5013266;28;20032;-75
2023/06/13 03:50:40;;;;;;;6.50;5.00;;;;;;;13.25;60.96;98047.31;5017383;28;20037;-75
2023/06/13 03:53:05;;;;;;;5.57;4.95;;;;;;;13.26;60.56;98043.50;5015861;28;20040;-76
2023/06/13 03:55:32;;;;;;;6.40;5.53;;;;;;;13.48;59.92;98052.25;5020281;28;20029;-76
2023/06/13 03:57:58;;;;;;;6.30;5.25;;;;;;;13.42;60.10;98042.47;5010428;28;20030;-75
2023/06/13 04:00:23;;;;;;;6.53;4.97;;;;;;;13.37;60.84;98041.69;5012903;28;20033;-75
2023/06/13 04:02:52;;;;;;;7.03;5.15;;;;;;;13.63;59.85;98040.63;5009356;28;20108;-75
2023/06/13 04:05:18;;;;;;;7.22;5.60;;;;;;;13.13;60.96;98041.31;4989770;28;20621;-76
2023/06/13 04:07:44;;;;;;;8.27;5.07;;;;;;;13.02;61.65;98036.91;4992875;28;20124;-75
2023/06/13 04:10:10;;;;;;;6.93;5.00;;;;;;;12.92;62.21;98036.88;5029301;28;20033;-75
2023/06/13 04:12:36;;;;;;;9.35;5.50;;;;;;;12.55;63.93;98036.13;4993462;28;20029;-75
2023/06/13 04:15:03;;;;;;;6.30;5.00;;;;;;;12.83;62.94;98033.03;5005392;28;20025;-75
2023/06/13 04:17:29;;;;;;;6.80;5.00;;;;;;;12.97;63.28;98031.47;5025881;28;20025;-75
2023/06/13 04:19:54;;;;;;;6.10;5.50;;;;;;;13.05;62.67;98025.56;5029128;28;20438;-75
2023/06/13 04:22:21;;;;;;;6.10;5.13;;;;;;;13.48;61.74;98025.22;5009516;28;20107;-74
2023/06/13 04:24:46;;;;;;;6.72;5.15;;;;;;;13.78;60.58;98030.69;5021549;28;20121;-74
2023/06/13 04:27:13;;;;;;;6.65;5.35;;;;;;;13.60;61.09;98033.06;5009399;28;20467;-75
2023/06/13 04:29:40;;;;;;;6.85;5.30;;;;;;;13.31;61.96;98035.44;4996405;28;20124;-74
2023/06/13 04:32:07;;;;;;;6.18;5.00;;;;;;;13.46;61.64;98037.38;5015755;28;20417;-74
2023/06/13 04:34:33;;;;;;;6.28;4.93;;;;;;;13.98;59.71;98034.50;5015236;28;20129;-74
2023/06/13 04:37:02;;;;;;;6.53;4.78;;;;;;;14.22;59.21;98030.13;5035128;28;20052;-74
2023/06/13 04:39:28;;;;;;;8.00;5.47;;;;;;;14.51;59.71;98039.38;5005891;28;20120;-74
2023/06/13 04:41:55;;;;;;;6.45;5.20;;;;;;;14.66;59.88;98035.81;5035106;28;20100;-74
2023/06/13 04:44:25;;;;;;;7.97;5.32;;;;;;;14.46;59.72;98033.94;5021210;28;20045;-73
2023/06/13 04:46:50;;;;;;;8.18;5.80;;;;;;;14.01;61.06;98034.75;5024577;28;20034;-74
2023/06/13 04:49:16;;;;;;;6.15;5.55;;;;;;;14.27;60.21;98038.25;5016487;28;20035;-74
2023/06/13 04:51:42;;;;;;;6.85;5.88;;;;;;;14.55;59.91;98040.44;5034962;28;20444;-74
2023/06/13 04:54:09;;;;;;;10.98;5.38;;;;;;;14.41;61.16;98044.78;5034354;28;20041;-74
2023/06/13 04:56:34;;;;;;;8.63;5.63;;;;;;;14.38;61.46;98039.91;5024405;28;20032;-74
2023/06/13 04:59:00;;;;;;;6.82;5.10;;;;;;;14.80;60.58;98043.09;5021433;28;20072;-74
2023/06/13 05:01:27;;;;;;;7.03;5.68;;;;;;;15.09;58.87;98040.56;5018479;28;20094;-74
2023/06/13 05:03:53;;;;;;;5.80;5.20;;;;;;;15.06;59.21;98031.09;5018214;28;20059;-73
2023/06/13 05:06:20;;;;;;;7.22;5.10;;;;;;;15.21;59.29;98039.19;5015033;28;20025;-74
2023/06/13 05:08:46;;;;;;;6.07;5.18;;;;;;;14.88;60.73;98044.44;5010650;28;20445;-74
2023/06/13 05:11:11;;;;;;;5.90;5.10;;;;;;;15.45;58.67;98039.34;5029821;28;20039;-74
2023/06/13 05:13:37;;;;;;;6.53;5.53;;;;;;;15.50;58.18;98033.06;5010104;28;20029;-74
2023/06/13 05:16:02;;;;;;;7.45;5.13;;;;;;;15.88;58.43;98037.75;5043861;28;20563;-74
2023/06/13 05:18:29;;;;;;;7.43;5.15;;;;;;;16.05;57.69;98043.59;5020722;28;20124;-73
2023/06/13 05:20:56;;;;;;;7.93;5.28;;;;;;;16.10;57.63;98045.47;5014646;28;20111;-73
2023/06/13 05:23:21;;;;;;;6.97;4.72;;;;;;;16.24;56.64;98047.22;5036662;28;20037;-73
2023/06/13 05:25:47;;;;;;;7.72;5.50;;;;;;;16.42;56.92;98043.03;5006437;28;20018;-74
2023/06/13 05:28:12;;;;;;;6.15;4.72;;;;;;;16.66;56.46;98051.25;5027916;28;20116;-74
2023/06/13 05:30:38;;;;;;;6.35;5.22;;;;;;;16.32;57.21;98051.25;5025669;28;20398;-73
2023/06/13 05:33:03;;;;;;;5.50;4.80;;;;;;;16.38;57.89;98053.63;5033948;28;20091;-78
2023/06/13 05:35:29;;;;;;;6.00;4.88;;;;;;;16.96;55.21;98056.38;5007281;28;20033;-75
2023/06/13 05:37:54;;;;;;;10.32;5.35;;;;;;;17.16;54.04;98053.44;5036282;28;20036;-75
2023/06/13 05:40:20;;;;;;;8.45;5.03;;;;;;;17.31;53.99;98053.25;5018377;28;20178;-76
2023/06/13 05:42:46;;;;;;;9.95;5.40;;;;;;;17.64;53.45;98056.94;5020710;28;20041;-74
2023/06/13 05:45:11;;;;;;;7.40;4.75;;;;;;;17.50;53.34;98056.00;5023239;28;20025;-75
2023/06/13 05:47:36;;;;;;;5.53;4.50;;;;;;;17.80;52.81;98053.72;5011251;28;20037;-74
2023/06/13 05:50:03;;;;;;;7.57;4.78;;;;;;;18.19;51.16;98056.13;5005355;28;20025;-73
2023/06/13 05:52:28;;;;;;;7.18;4.55;;;;;;;18.26;51.13;98050.28;5030526;28;20706;-74
2023/06/13 05:54:53;;;;;;;7.68;4.70;;;;;;;18.18;50.93;98061.88;5015585;28;20061;-74
2023/06/13 05:57:19;;;;;;;6.95;4.88;;;;;;;18.29;49.16;98071.50;5034839;28;20037;-74
2023/06/13 05:59:44;;;;;;;6.65;4.50;;;;;;;18.48;47.75;98069.59;5042663;28;20028;-74
2023/06/13 06:02:10;;;;;;;5.95;4.25;;;;;;;18.56;47.45;98071.63;4999630;28;20117;-73
2023/06/13 06:04:36;;;;;;;6.47;4.40;;;;;;;18.81;46.77;98068.44;5007859;28;20637;-75
2023/06/13 06:07:02;;;;;;;6.35;4.35;;;;;;;18.72;45.84;98064.78;5003823;28;20466;-75
2023/06/13 06:09:28;;;;;;;7.60;4.40;;;;;;;18.96;44.88;98060.00;5017305;28;20021;-75
2023/06/13 06:11:53;;;;;;;5.18;4.38;;;;;;;19.26;44.87;98070.31;5004192;28;20155;-75
2023/06/13 06:14:20;;;;;;;7.72;4.95;;;;;;;18.75;45.02;98074.31;5022633;28;20038;-75
2023/06/13 06:16:45;;;;;;;7.95;4.35;;;;;;;18.93;44.74;98076.97;5030892;28;20509;-75
2023/06/13 06:19:10;;;;;;;6.82;4.20;;;;;;;18.81;43.92;98078.56;4995886;28;20025;-70
2023/06/13 06:21:36;;;;;;;8.68;4.10;;;;;;;19.04;43.95;98072.13;5037516;28;20044;-72
2023/06/13 06:24:01;;;;;;;8.30;4.63;;;;;;;19.11;43.73;98067.88;5036973;28;20041;-75
2023/06/13 06:26:27;;;;;;;6.40;4.05;;;;;;;19.33;44.49;98069.91;5024206;28;20041;-75
2023/06/13 06:28:52;;;;;;;6.47;4.30;;;;;;;19.49;45.74;98079.44;5010553;28;20035;-75
2023/06/13 06:31:18;;;;;;;5.75;4.10;;;;;;;19.53;43.63;98075.00;5031047;28;20167;-75
2023/06/13 06:33:44;;;;;;;6.45;4.30;;;;;;;19.68;43.35;98079.31;5011063;28;20020;-75
2023/06/13 06:36:09;;;;;;;5.15;3.83;;;;;;;19.77;43.30;98074.75;5007805;28;20390;-76
2023/06/13 06:38:35;;;;;;;8.88;4.05;;;;;;;19.82;42.50;98078.19;5027186;28;20032;-75
2023/06/13 06:41:00;;;;;;;7.32;4.43;;;;;;;20.11;42.34;98069.63;5014358;28;20033;-76
2023/06/13 06:43:25;;;;;;;6.97;4.55;;;;;;;20.06;41.50;98072.47;5044491;28;20660;-75
2023/06/13 06:45:52;;;;;;;5.75;3.60;;;;;;;20.12;40.31;98078.63;5020414;28;20446;-72
2023/06/13 06:48:18;;;;;;;8.35;4.30;;;;;;;20.08;40.88;98069.41;5017227;28;20030;-72
2023/06/13 06:50:43;;;;;;;5.20;4.15;;;;;;;19.93;41.31;98073.28;5024054;28;20104;-75
2023/06/13 06:53:09;;;;;;;6.65;3.80;;;;;;;20.35;40.87;98070.16;5036629;28;20917;-75
2023/06/13 06:55:34;;;;;;;5.78;3.83;;;;;;;20.50;39.65;98067.06;5041693;28;20040;-76
2023/06/13 06:57:59;;;;;;;6.13;4.57;;;;;;;20.26;41.55;98077.47;5017560;28;20032;-75
2023/06/13 07:00:25;;;;;;;8.25;4.22;;;;;;;20.26;41.53;98077.47;5017040;28;20037;-75
2023/06/13 07:02:51;;;;;;;5.50;3.97;;;;;;;20.28;40.02;98069.78;5054635;28;20382;-75
2023/06/13 07:05:17;;;;;;;4.78;3.53;;;;;;;20.70;39.36;98068.44;5033773;28;20108;-75
2023/06/13 07:30:28;;;;;;;5.45;3.45;;;;;;;21.25;34.72;98071.66;4992168;28;20053;-75
2023/06/13 07:33:33;;;;;;;4.60;3.35;;;;;;;21.18;34.42;98043.94;4953355;28;20409;-75
2023/06/13 07:35:58;;;;;;;6.85;3.15;;;;;;;20.93;34.23;98047.34;4953701;29;20138;-75
2023/06/13 07:38:29;;;;;;;4.40;3.17;;;;;;;20.93;34.34;98058.28;4953258;28;20151;-75
2023/06/13 07:41:19;;;;;;;6.40;3.47;;;;;;;21.52;33.70;98063.22;4917518;29;20051;-75
2023/06/13 07:55:56;;;;;;;5.20;3.50;;;;;;;21.50;31.76;98021.63;4886490;29;20051;-74
2023/06/13 07:58:36;;;;;;;6.30;3.30;;;;;;;21.41;31.19;98029.00;4981144;28;20080;-74
2023/06/13 08:01:03;;;;;;;5.75;3.50;;;;;;;21.70;31.87;98045.69;5012780;28;20030;-76
2023/06/13 08:03:28;;;;;;;4.28;3.17;;;;;;;21.76;32.13;98038.94;4979625;28;20024;-75
2023/06/13 08:05:54;;;;;;;5.50;3.10;;;;;;;21.79;32.92;98035.56;4996456;28;20116;-77
2023/06/13 08:08:19;;;;;;;8.13;3.63;;;;;;;21.69;31.97;98044.06;4996343;28;20522;-75
2023/06/13 08:10:45;;;;;;;7.45;3.60;;;;;;;21.60;31.94;98034.22;5005132;28;20041;-74
2023/06/13 08:13:10;;;;;;;13.50;3.63;;;;;;;21.57;31.22;98027.44;4960129;28;20488;-74
2023/06/13 08:15:37;;;;;;;5.65;3.53;;;;;;;21.83;30.71;98022.00;4967638;28;20101;-75
2023/06/13 08:18:03;;;;;;;8.57;3.67;;;;;;;22.06;31.93;98030.91;4994076;28;20480;-74
2023/06/13 08:20:28;;;;;;;5.90;3.45;;;;;;;21.99;31.19;98025.91;5013602;28;20033;-74
2023/06/13 08:22:55;;;;;;;4.53;3.42;;;;;;;22.06;31.40;98022.66;4998854;28;20492;-76
2023/06/13 08:25:20;;;;;;;4.70;3.60;;;;;;;21.93;32.02;98008.81;4995877;28;20474;-75
2023/06/13 08:27:46;;;;;;;6.55;3.40;;;;;;;22.01;30.91;98018.97;4994411;28;20061;-74
2023/06/13 08:30:11;;;;;;;5.72;3.50;;;;;;;21.86;30.54;98022.19;4993920;28;20042;-75
2023/06/13 08:32:38;;;;;;;5.88;3.58;;;;;;;22.19;31.41;98018.97;4968200;28;20483;-73
2023/06/13 08:35:04;;;;;;;5.45;3.83;;;;;;;22.39;31.61;98018.28;5008353;28;20031;-75
2023/06/13 08:37:30;;;;;;;4.95;3.35;;;;;;;22.46;30.94;98013.13;4980522;28;20043;-75
2023/06/13 08:39:56;;;;;;;5.03;3.42;;;;;;;22.29;30.83;98024.09;5009638;28;20046;-75
2023/06/13 08:42:21;;;;;;;4.57;3.25;;;;;;;22.48;30.90;98017.16;5013185;28;20072;-75
2023/06/13 08:44:48;;;;;;;9.00;4.07;;;;;;;22.67;30.69;98008.59;4995426;28;20503;-74
2023/06/13 08:47:13;;;;;;;9.85;3.75;;;;;;;21.82;30.30;98021.19;4996666;28;20021;-75
2023/06/13 08:49:39;;;;;;;5.38;3.50;;;;;;;22.26;30.27;98009.13;4975591;28;20122;-74
2023/06/13 08:52:08;;;;;;;5.60;3.33;;;;;;;22.31;31.16;98010.91;4981159;28;20022;-75
2023/06/13 08:54:35;;;;;;;6.07;3.88;;;;;;;22.97;29.66;98018.50;4998631;28;20451;-74
2023/06/13 08:57:03;;;;;;;7.43;3.83;;;;;;;22.37;31.67;98010.41;4987159;28;20529;-75
2023/06/13 08:59:30;;;;;;;6.10;3.30;;;;;;;23.27;31.36;98014.63;4959769;28;20454;-74
2023/06/13 09:01:57;;;;;;;7.82;4.10;;;;;;;22.68;32.46;97999.22;4975566;28;20073;-75
2023/06/13 09:04:27;;;;;;;6.80;3.47;;;;;;;22.70;30.83;98007.94;4980856;28;20147;-75
2023/06/13 09:06:53;;;;;;;4.57;3.22;;;;;;;23.08;30.66;98007.97;4995901;28;20060;-75
2023/06/13 09:09:19;;;;;;;8.38;3.80;;;;;;;22.84;31.17;98003.03;5018447;28;20456;-74
2023/06/13 09:11:45;;;;;;;4.13;3.60;;;;;;;22.69;30.98;98000.81;4994633;28;20042;-75
2023/06/13 09:14:12;;;;;;;8.35;3.85;;;;;;;22.51;31.36;97993.75;4978310;28;20021;-75
2023/06/13 09:16:37;;;;;;;7.63;3.85;;;;;;;23.08;32.02;98002.47;4994816;28;20038;-75
2023/06/13 09:19:02;;;;;;;6.93;4.03;;;;;;;23.31;31.00;97990.84;4978578;28;20025;-74
2023/06/13 09:21:28;;;;;;;5.82;3.60;;;;;;;23.07;30.94;97984.34;4994942;28;20029;-74
2023/06/13 09:23:55;;;;;;;7.13;3.88;;;;;;;23.82;30.61;97994.44;4994322;28;20467;-74
2023/06/13 09:26:21;;;;;;;7.00;3.42;;;;;;;23.43;30.60;97997.63;4995589;28;20491;-74
2023/06/13 09:28:47;;;;;;;10.00;4.75;;;;;;;22.53;33.38;97969.50;4989073;28;20030;-74
2023/06/13 09:31:12;;;;;;;5.05;3.63;;;;;;;23.38;31.54;97991.16;4995242;28;20121;-74
2023/06/13 09:33:38;;;;;;;8.43;4.40;;;;;;;23.38;30.75;97974.66;4984186;28;20508;-75
2023/06/13 09:36:05;;;;;;;6.57;3.72;;;;;;;22.54;31.71;97982.09;4994533;28;20069;-74
2023/06/13 09:38:37;;;;;;;4.68;3.85;;;;;;;23.11;31.39;97980.63;4994594;28;20357;-74
2023/06/13 09:41:03;;;;;;;8.05;3.90;;;;;;;23.35;31.45;97967.09;4992189;28;20038;-75
2023/06/13 09:43:29;;;;;;;10.27;4.15;;;;;;;23.19;30.88;97960.56;4993943;28;20022;-74
2023/06/13 09:45:54;;;;;;;7.20;4.20;;;;;;;23.43;30.88;97964.63;4994511;28;20037;-75
2023/06/13 09:48:21;;;;;;;9.57;3.88;;;;;;;23.54;30.26;97960.34;4974788;28;20026;-75
2023/06/13 09:50:47;;;;;;;9.45;3.83;;;;;;;23.85;30.24;97974.53;4991785;28;20022;-75
2023/06/13 09:53:13;;;;;;;6.13;4.20;;;;;;;24.26;29.16;97952.47;4976969;28;20022;-75
2023/06/13 09:55:38;;;;;;;8.63;4.05;;;;;;;23.64;29.43;97960.75;4958989;28;20049;-75
2023/06/13 09:58:04;;;;;;;6.18;3.67;;;;;;;24.37;29.08;97948.16;5002850;28;20034;-75
2023/06/13 10:00:30;;;;;;;6.07;3.78;;;;;;;24.33;28.78;97955.50;5010583;28;20037;-74
2023/06/13 10:02:56;;;;;;;4.78;3.50;;;;;;;23.70;28.21;97942.94;4983525;28;20567;-75
2023/06/13 10:05:22;;;;;;;4.97;3.78;;;;;;;23.91;27.86;97943.72;4991714;28;20037;-75
2023/06/13 10:07:47;;;;;;;5.00;3.53;;;;;;;23.89;27.54;97939.69;4994465;28;20391;-74
2023/06/13 10:10:13;;;;;;;7.40;3.78;;;;;;;24.04;27.41;97930.81;5010605;28;20483;-74
2023/06/13 10:12:43;;;;;;;6.00;3.53;;;;;;;24.67;27.48;97932.25;4994312;28;20049;-75
2023/06/13 10:15:10;;;;;;;5.47;3.30;;;;;;;24.59;27.33;97930.44;4993805;28;20042;-75
2023/06/13 10:17:39;;;;;;;6.30;3.65;;;;;;;24.08;27.03;97925.47;4994143;28;20034;-75
2023/06/13 10:20:09;;;;;;;6.35;3.17;;;;;;;24.02;26.45;97944.09;5007545;28;20105;-74
2023/06/13 10:22:35;;;;;;;6.25;3.40;;;;;;;23.54;26.51;97927.34;4994541;28;20514;-75
2023/06/13 10:25:00;;;;;;;3.80;3.40;;;;;;;23.81;26.01;97932.31;4987202;28;20026;-75
2023/06/13 10:27:26;;;;;;;5.07;3.75;;;;;;;24.09;26.50;97916.06;4986806;28;20140;-74
2023/06/13 10:29:57;;;;;;;4.30;3.70;;;;;;;24.01;26.76;97915.00;4964964;28;20022;-75
2023/06/13 10:32:28;;;;;;;6.30;3.40;;;;;;;23.93;25.65;97918.63;4992605;28;20647;-75
2023/06/13 10:35:20;;;;;;;5.20;3.33;;;;;;;24.25;26.10;97908.78;4998018;28;20038;-75
2023/06/13 10:38:01;;;;;;;5.65;3.20;;;;;;;24.16;26.43;97899.78;4994341;28;20045;-75
2023/06/13 10:40:26;;;;;;;7.95;3.30;;;;;;;24.67;26.48;97900.00;4993974;28;20120;-75
2023/06/13 10:43:00;;;;;;;4.03;3.33;;;;;;;25.43;24.30;97893.78;5011241;28;20104;-75
2023/06/13 10:45:27;;;;;;;5.32;3.40;;;;;;;25.45;24.48;97897.03;4994161;28;20041;-75
2023/06/13 10:47:52;;;;;;;5.93;3.13;;;;;;;25.03;23.63;97895.69;4994124;28;20074;-74
2023/06/13 10:50:18;;;;;;;6.50;3.17;;;;;;;25.05;24.53;97898.91;4961128;28;20603;-75
2023/06/13 10:52:45;;;;;;;4.70;3.42;;;;;;;25.14;23.13;97905.91;4977722;28;20018;-75
2023/06/13 10:55:21;;;;;;;4.05;3.45;;;;;;;25.12;23.82;97890.84;4990067;28;20034;-74
2023/06/13 10:57:50;;;;;;;;;;;;;;;25.43;23.27;97888.28;4984790;28;20038;-74
2023/06/13 11:00:35;;;;;;;4.75;3.45;;;;;;;25.20;22.85;97895.44;4993924;28;19916;-75
2023/06/13 11:03:05;;;;;;;5.82;3.67;;;;;;;25.79;22.35;97890.94;4985041;28;20488;-75
2023/06/13 11:05:33;;;;;;;7.72;3.55;;;;;;;25.55;22.69;97891.03;4987474;28;20023;-75
2023/06/13 11:07:58;;;;;;;4.47;3.25;;;;;;;25.79;23.30;97887.41;4961835;28;20042;-75
2023/06/13 11:10:25;;;;;;;5.47;3.40;;;;;;;25.54;22.06;97883.91;4991675;28;20101;-75
2023/06/13 11:12:53;;;;;;;5.13;2.95;;;;;;;25.87;21.78;97881.72;4997279;28;20046;-75
2023/06/13 11:15:27;;;;;;;4.45;3.60;;;;;;;25.47;22.26;97880.94;4996583;28;20112;-75
2023/06/13 11:18:08;;;;;;;4.00;3.58;;;;;;;25.44;23.79;97878.88;4995280;28;20038;-75
2023/06/13 11:20:39;;;;;;;7.63;4.03;;;;;;;25.30;23.24;97878.41;4996861;28;20095;-75
2023/06/13 11:23:04;;;;;;;7.45;3.50;;;;;;;24.93;24.33;97863.88;4995986;28;20077;-75
2023/06/13 11:25:29;;;;;;;7.05;3.47;;;;;;;25.03;24.49;97868.13;4980766;28;20057;-75
2023/06/13 11:27:55;;;;;;;4.75;3.72;;;;;;;25.51;24.32;97872.78;4996928;28;20033;-75
2023/06/13 11:30:21;;;;;;;6.68;3.78;;;;;;;25.47;24.47;97864.41;4988401;28;20034;-75
2023/06/13 11:32:47;;;;;;;8.48;3.75;;;;;;;26.12;23.15;97865.06;4992588;28;20066;-75
2023/06/13 11:35:15;;;;;;;5.35;3.55;;;;;;;25.70;23.78;97864.66;4962104;28;20040;-75
2023/06/13 11:37:45;;;;;;;5.47;3.60;;;;;;;25.88;22.55;97865.97;4988408;28;20476;-75
2023/06/13 11:40:16;;;;;;;5.03;3.60;;;;;;;26.11;23.98;97853.25;5003150;28;20142;-75
2023/06/13 11:42:41;;;;;;;5.65;3.05;;;;;;;26.13;23.96;97850.13;4976916;28;20084;-74
2023/06/13 11:45:07;;;;;;;7.05;4.03;;;;;;;26.20;24.17;97844.78;4985299;28;20021;-75
2023/06/13 11:47:32;;;;;;;8.90;4.03;;;;;;;25.70;23.99;97854.44;5000817;28;20064;-75
2023/06/13 11:49:58;;;;;;;5.25;3.72;;;;;;;25.52;23.60;97858.63;4991735;28;20030;-75
2023/06/13 11:52:24;;;;;;;6.70;3.60;;;;;;;25.57;24.23;97850.13;4982252;28;20102;-75
2023/06/13 11:54:50;;;;;;;8.80;4.20;;;;;;;26.06;24.20;97853.47;4985413;28;20577;-75
2023/06/13 11:57:18;;;;;;;4.53;3.67;;;;;;;26.77;22.46;97845.06;4986026;28;20089;-75
2023/06/13 11:59:44;;;;;;;7.63;3.22;;;;;;;26.31;23.58;97845.84;4999871;28;20092;-75
2023/06/13 12:02:13;;;;;;;9.02;3.50;;;;;;;26.12;24.88;97848.50;4977794;28;20816;-75
2023/06/13 12:04:42;;;;;;;4.75;3.72;;;;;;;25.54;23.16;97847.25;4983671;28;20023;-76
2023/06/13 12:07:07;;;;;;;7.60;3.50;;;;;;;26.64;24.32;97847.13;4991762;28;20521;-76
2023/06/13 12:09:32;;;;;;;6.13;3.85;;;;;;;26.15;23.17;97843.09;4992801;28;20161;-75